Time;durP1;ratioP1;P1;durP2;ratioP2;P2;SDS_P1;SDS_P2;PMS_P1;PMS_P2;Temp;Humidity;BMP_temperature;BMP_pressure;BME280_temperature;BME280_humidity;BME280_pressure;Samples;Min_cycle;Max_cycle;Signal;HPM_P1;HPM_P2
2022/08/03 00:00:34;;;;;;;2.60;2.20;;;;;;;;;;5080026;28;20115;-79
2022/08/03 00:03:49;;;;;;;3.22;2.00;;;;;;;;;;5081331;28;20027;-77
2022/08/03 00:06:56;;;;;;;4.68;2.53;;;;;;;;;;5048574;28;20375;-80
2022/08/03 00:09:39;;;;;;;4.85;2.17;;;;;;;;;;5080975;28;20021;-77
2022/08/03 00:13:01;;;;;;;3.38;2.30;;;;;;;;;;5075120;28;20087;-78
2022/08/03 00:15:26;;;;;;;3.28;2.25;;;;;;;;;;5070259;28;20115;-80
2022/08/03 00:17:54;;;;;;;2.72;2.28;;;;;;;;;;5076824;28;20113;-75
2022/08/03 00:20:20;;;;;;;3.70;2.40;;;;;;;;;;5075299;28;20056;-75
2022/08/03 00:22:46;;;;;;;4.57;2.47;;;;;;;;;;5075228;28;20065;-74
2022/08/03 00:25:11;;;;;;;3.47;2.50;;;;;;;;;;5075246;28;20102;-75
2022/08/03 00:27:36;;;;;;;4.27;2.30;;;;;;;;;;5075190;28;20499;-76
2022/08/03 00:30:02;;;;;;;3.73;2.07;;;;;;;;;;5075163;28;20257;-75
2022/08/03 00:32:27;;;;;;;6.03;2.72;;;;;;;;;;5075296;28;20275;-75
2022/08/03 00:34:52;;;;;;;5.07;2.10;;;;;;;;;;5075360;28;20021;-76
2022/08/03 00:37:18;;;;;;;3.93;2.40;;;;;;;;;;5075217;28;20344;-75
2022/08/03 00:39:45;;;;;;;2.85;2.13;;;;;;;;;;5075084;28;20323;-75
2022/08/03 00:42:10;;;;;;;3.00;2.55;;;;;;;;;;5074813;28;20027;-76
2022/08/03 00:44:40;;;;;;;3.55;2.50;;;;;;;;;;5075068;28;20024;-76
2022/08/03 00:47:06;;;;;;;3.08;2.38;;;;;;;;;;5078497;28;20060;-78
2022/08/03 00:49:31;;;;;;;4.80;2.40;;;;;;;;;;5078701;28;20385;-78
2022/08/03 00:51:57;;;;;;;7.68;2.60;;;;;;;;;;5078647;28;20026;-79
2022/08/03 00:54:23;;;;;;;3.83;2.50;;;;;;;;;;5077972;28;20029;-78
2022/08/03 00:56:49;;;;;;;7.95;2.50;;;;;;;;;;5079412;28;20016;-77
2022/08/03 00:59:15;;;;;;;4.43;3.00;;;;;;;;;;5061200;28;20060;-79
2022/08/03 01:01:40;;;;;;;7.10;3.15;;;;;;;;;;5078185;28;20519;-80
2022/08/03 01:04:05;;;;;;;7.07;3.53;;;;;;;;;;5078237;28;20082;-78
2022/08/03 01:06:48;;;;;;;4.73;3.40;;;;;;;;;;5077885;28;20130;-78
2022/08/03 01:09:37;;;;;;;4.33;3.53;;;;;;;;;;5060469;28;20265;-78
2022/08/03 01:12:09;;;;;;;10.68;3.47;;;;;;;;;;5078879;28;20150;-77
2022/08/03 01:14:49;;;;;;;5.57;3.42;;;;;;;;;;5077652;28;20025;-78
2022/08/03 01:17:38;;;;;;;8.82;4.20;;;;;;;;;;5077334;28;20028;-78
2022/08/03 01:20:12;;;;;;;8.82;4.05;;;;;;;;;;5077715;28;20032;-78
2022/08/03 01:22:59;;;;;;;7.47;4.05;;;;;;;;;;5077945;28;20028;-79
2022/08/03 01:25:38;;;;;;;7.75;3.85;;;;;;;;;;5070813;28;20030;-78
2022/08/03 01:28:32;;;;;;;5.97;4.10;;;;;;;;;;5079083;28;20064;-82
2022/08/03 01:31:02;;;;;;;8.10;4.57;;;;;;;;;;5077394;28;20028;-80
2022/08/03 01:33:35;;;;;;;7.30;4.05;;;;;;;;;;5077361;28;20077;-76
2022/08/03 01:36:04;;;;;;;7.35;4.40;;;;;;;;;;5077884;28;20040;-79
2022/08/03 01:38:45;;;;;;;10.13;4.50;;;;;;;;;;5077574;28;20024;-78
2022/08/03 01:41:16;;;;;;;9.60;4.07;;;;;;;;;;5059383;28;20442;-79
2022/08/03 01:43:46;;;;;;;9.60;4.20;;;;;;;;;;5077499;28;20031;-79
2022/08/03 01:46:13;;;;;;;6.15;3.90;;;;;;;;;;5077559;28;20048;-79
2022/08/03 01:48:41;;;;;;;6.50;3.85;;;;;;;;;;5077247;28;20027;-79
2022/08/03 01:51:09;;;;;;;6.68;3.97;;;;;;;;;;5059243;28;20397;-78
2022/08/03 01:53:36;;;;;;;7.10;3.80;;;;;;;;;;5060337;28;20488;-79
2022/08/03 01:56:04;;;;;;;8.02;3.90;;;;;;;;;;5060426;28;20040;-79
2022/08/03 01:58:31;;;;;;;5.57;3.92;;;;;;;;;;5077257;28;20028;-79
2022/08/03 02:00:59;;;;;;;8.75;4.00;;;;;;;;;;5077695;28;20024;-78
2022/08/03 02:03:27;;;;;;;5.57;3.70;;;;;;;;;;5077450;28;20106;-78
2022/08/03 02:05:54;;;;;;;6.68;4.32;;;;;;;;;;5077583;28;20024;-79
2022/08/03 02:08:23;;;;;;;5.78;4.13;;;;;;;;;;5079094;28;20035;-78
2022/08/03 02:10:49;;;;;;;6.95;4.03;;;;;;;;;;5079782;28;20032;-78
2022/08/03 02:13:17;;;;;;;7.97;4.53;;;;;;;;;;5079005;28;20036;-78
2022/08/03 02:15:43;;;;;;;10.93;4.60;;;;;;;;;;5078365;28;20031;-78
2022/08/03 02:18:09;;;;;;;15.52;4.82;;;;;;;;;;5077231;28;20078;-78
2022/08/03 02:20:38;;;;;;;9.77;4.50;;;;;;;;;;5058580;28;20028;-79
2022/08/03 02:23:06;;;;;;;9.05;4.35;;;;;;;;;;5075697;28;20032;-78
2022/08/03 02:25:33;;;;;;;11.73;4.82;;;;;;;;;;5077136;28;20394;-78
2022/08/03 02:28:07;;;;;;;8.88;5.00;;;;;;;;;;5077507;28;20028;-77
2022/08/03 02:30:37;;;;;;;9.68;5.20;;;;;;;;;;5076049;28;20025;-78
2022/08/03 02:33:04;;;;;;;9.68;5.10;;;;;;;;;;5076879;28;20115;-79
2022/08/03 02:35:31;;;;;;;8.98;5.00;;;;;;;;;;5075951;28;20481;-79
2022/08/03 02:37:59;;;;;;;7.50;4.80;;;;;;;;;;5075271;28;20028;-78
2022/08/03 02:40:27;;;;;;;8.73;4.97;;;;;;;;;;5074786;28;20428;-78
2022/08/03 03:20:58;;;;;;;10.40;5.03;;;;;;;;;;4980670;28;20043;-80
2022/08/03 03:24:21;;;;;;;;;;;;;;;;;;;;;
2022/08/03 03:35:41;;;;;;;7.90;5.10;;;;;;;;;;5052500;28;20052;-79
2022/08/03 03:38:18;;;;;;;8.15;5.40;;;;;;;;;;5054564;28;20040;-80
2022/08/03 05:07:16;;;;;;;;;;;;;;;;;;;;;
2022/08/03 05:25:22;;;;;;;;;;;;;;;;;;;;;
2022/08/03 05:39:59;;;;;;;;;;;;;;;;;;;;;
2022/08/03 05:58:20;;;;;;;6.57;3.75;;;;;;;;;;5060215;28;20040;-81
2022/08/03 06:04:40;;;;;;;;;;;;;;;;;;;;;
2022/08/03 06:22:17;;;;;;;7.75;3.75;;;;;;;;;;4932833;29;20027;-80
2022/08/03 06:25:51;;;;;;;5.28;3.50;;;;;;;;;;4958894;28;20039;-80
2022/08/03 06:43:36;;;;;;;6.57;3.08;;;;;;;;;;2202573;26;20109;-80
2022/08/03 06:53:39;;;;;;;6.05;2.67;;;;;;;;;;5016398;28;20065;-81
2022/08/03 06:56:06;;;;;;;2.95;2.60;;;;;;;;;;5009337;28;20094;-81
2022/08/03 06:58:31;;;;;;;4.20;2.80;;;;;;;;;;5016151;28;20068;-81
2022/08/03 07:01:05;;;;;;;3.30;2.67;;;;;;;;;;5015891;28;20180;-81
2022/08/03 07:03:33;;;;;;;4.47;2.60;;;;;;;;;;5016703;28;20029;-81
2022/08/03 07:06:01;;;;;;;6.03;2.40;;;;;;;;;;5016915;28;20503;-79
2022/08/03 07:08:37;;;;;;;4.82;2.38;;;;;;;;;;5016925;28;20029;-80
2022/08/03 07:11:06;;;;;;;12.35;2.58;;;;;;;;;;5016066;28;20411;-80
2022/08/03 07:13:44;;;;;;;4.55;2.20;;;;;;;;;;5016864;28;20026;-80
2022/08/03 07:19:35;;;;;;;5.15;2.20;;;;;;;;;;5007864;28;20113;-80
2022/08/03 07:22:12;;;;;;;4.85;2.40;;;;;;;;;;5017081;28;20029;-79
2022/08/03 07:28:44;;;;;;;;;;;;;;;;;;;;;
2022/08/03 07:31:55;;;;;;;3.55;2.30;;;;;;;;;;5018377;28;20026;-80
2022/08/03 07:34:52;;;;;;;2.50;1.98;;;;;;;;;;5018930;28;20041;-80
2022/08/03 07:37:47;;;;;;;5.70;2.20;;;;;;;;;;5019223;28;20025;-80
2022/08/03 07:40:25;;;;;;;4.47;2.10;;;;;;;;;;4998381;28;20044;-80
2022/08/03 07:43:44;;;;;;;;;;;;;;;;;;;;;
2022/08/03 07:46:49;;;;;;;4.47;2.10;;;;;;;;;;4978191;28;20443;-78
2022/08/03 07:49:27;;;;;;;;;;;;;;;;;;;;;
2022/08/03 07:55:01;;;;;;;5.63;2.38;;;;;;;;;;4986936;28;20053;-79
2022/08/03 07:57:46;;;;;;;4.15;2.10;;;;;;;;;;5018785;28;20053;-78
2022/08/03 08:08:42;;;;;;;;;;;;;;;;;;;;;
2022/08/03 08:11:05;;;;;;;3.72;1.85;;;;;;;;;;4970935;28;20027;-80
2022/08/03 08:19:53;;;;;;;1.87;1.70;;;;;;;;;;4924883;28;20038;-78
2022/08/03 08:23:42;;;;;;;6.15;1.80;;;;;;;;;;4975760;28;20041;-80
2022/08/03 08:29:38;;;;;;;2.35;1.65;;;;;;;;;;4900125;29;20088;-80
2022/08/03 08:32:03;;;;;;;2.88;1.75;;;;;;;;;;4900866;29;20478;-79
2022/08/03 08:38:44;;;;;;;;;;;;;;;;;;;;;
2022/08/03 08:41:39;;;;;;;2.35;1.70;;;;;;;;;;4889888;29;20092;-79
2022/08/03 08:57:59;;;;;;;4.90;1.85;;;;;;;;;;4913168;29;20039;-79
2022/08/03 09:07:26;;;;;;;3.78;1.85;;;;;;;;;;4965532;28;20102;-79
2022/08/03 09:09:54;;;;;;;3.42;2.00;;;;;;;;;;5076815;28;20044;-78
2022/08/03 09:12:21;;;;;;;3.45;1.90;;;;;;;;;;5070405;28;20032;-80
2022/08/03 09:14:54;;;;;;;3.88;1.80;;;;;;;;;;5098017;28;20031;-78
2022/08/03 09:17:32;;;;;;;;;;;;;;;;;;;;;
2022/08/03 09:20:17;;;;;;;;;;;;;;;;;;;;;
2022/08/03 09:23:36;;;;;;;5.50;1.80;;;;;;;;;;5090963;28;20548;-79
2022/08/03 09:26:33;;;;;;;7.45;1.80;;;;;;;;;;5076025;28;20082;-80
2022/08/03 09:29:16;;;;;;;2.58;1.70;;;;;;;;;;5061587;28;20120;-78
2022/08/03 09:31:47;;;;;;;1.85;1.65;;;;;;;;;;5098698;28;20027;-77
2022/08/03 09:34:16;;;;;;;2.05;1.80;;;;;;;;;;5102565;28;20099;-78
2022/08/03 09:36:46;;;;;;;2.67;1.95;;;;;;;;;;5087055;28;20063;-79
2022/08/03 09:39:31;;;;;;;3.90;1.60;;;;;;;;;;5104645;28;20024;-78
2022/08/03 09:42:10;;;;;;;1.85;1.73;;;;;;;;;;5101414;28;20103;-78
2022/08/03 09:44:47;;;;;;;2.45;1.90;;;;;;;;;;5080744;28;20024;-78
2022/08/03 09:47:36;;;;;;;5.45;1.80;;;;;;;;;;5097760;28;20436;-77
2022/08/03 09:51:03;;;;;;;;;;;;;;;;;;;;;
2022/08/03 09:53:58;;;;;;;3.63;1.70;;;;;;;;;;5038172;28;20563;-79
2022/08/03 09:56:46;;;;;;;6.53;1.73;;;;;;;;;;5074429;28;20035;-79
2022/08/03 10:00:09;;;;;;;4.22;1.65;;;;;;;;;;5100090;28;20370;-81
2022/08/03 10:02:39;;;;;;;2.17;1.50;;;;;;;;;;4997089;28;20423;-79
2022/08/03 10:05:21;;;;;;;;;;;;;;;;;;;;;
2022/08/03 10:08:13;;;;;;;1.98;1.50;;;;;;;;;;5093487;28;20538;-78
2022/08/03 10:11:07;;;;;;;10.25;2.00;;;;;;;;;;5095557;28;20038;-78
2022/08/03 10:16:41;;;;;;;2.55;1.80;;;;;;;;;;5088588;28;20028;-79
2022/08/03 10:19:46;;;;;;;3.67;1.80;;;;;;;;;;5097895;28;20028;-79
2022/08/03 10:26:16;;;;;;;2.83;1.83;;;;;;;;;;5096463;28;20032;-79
2022/08/03 10:29:10;;;;;;;;;;;;;;;;;;;;;
2022/08/03 10:31:51;;;;;;;4.82;1.90;;;;;;;;;;5094271;28;20024;-79
2022/08/03 10:34:30;;;;;;;4.05;1.70;;;;;;;;;;5078348;28;20443;-80
2022/08/03 10:36:58;;;;;;;2.53;1.80;;;;;;;;;;5098199;28;20024;-81
2022/08/03 10:39:27;;;;;;;3.58;1.90;;;;;;;;;;5099619;28;20027;-81
2022/08/03 10:41:56;;;;;;;1.92;1.60;;;;;;;;;;5079801;28;20023;-80
2022/08/03 10:44:24;;;;;;;2.67;1.73;;;;;;;;;;5098145;28;20028;-78
2022/08/03 10:46:50;;;;;;;2.70;1.95;;;;;;;;;;5098439;28;20081;-78
2022/08/03 10:49:19;;;;;;;7.78;1.98;;;;;;;;;;5098154;28;20048;-79
2022/08/03 10:51:46;;;;;;;6.63;1.90;;;;;;;;;;5098958;28;20055;-79
2022/08/03 10:57:52;;;;;;;2.08;1.77;;;;;;;;;;5102015;28;20131;-79
2022/08/03 11:00:19;;;;;;;6.35;1.90;;;;;;;;;;5102151;28;20076;-81
2022/08/03 11:03:07;;;;;;;4.78;2.00;;;;;;;;;;5102832;28;20024;-80
2022/08/03 11:05:38;;;;;;;5.28;1.67;;;;;;;;;;5084999;28;20073;-77
2022/08/03 11:08:28;;;;;;;2.88;1.80;;;;;;;;;;5102978;28;20115;-79
2022/08/03 11:10:59;;;;;;;3.95;1.73;;;;;;;;;;5083175;28;20473;-79
2022/08/03 11:13:30;;;;;;;3.83;1.90;;;;;;;;;;5065716;28;20062;-80
2022/08/03 11:15:57;;;;;;;3.42;2.00;;;;;;;;;;5083678;28;20048;-79
2022/08/03 11:18:23;;;;;;;2.97;2.05;;;;;;;;;;5082117;28;20044;-78
2022/08/03 11:20:53;;;;;;;7.32;1.90;;;;;;;;;;5082415;28;20024;-80
2022/08/03 11:23:41;;;;;;;2.45;1.92;;;;;;;;;;5083217;28;20455;-77
2022/08/03 11:26:16;;;;;;;8.80;1.80;;;;;;;;;;5082380;28;20027;-78
2022/08/03 11:28:45;;;;;;;3.05;1.90;;;;;;;;;;5065683;28;20041;-78
2022/08/03 11:31:26;;;;;;;2.58;2.13;;;;;;;;;;5064930;28;20021;-79
2022/08/03 11:34:09;;;;;;;3.78;1.98;;;;;;;;;;5082657;28;20016;-77
2022/08/03 11:37:12;;;;;;;6.38;2.00;;;;;;;;;;5083353;28;20470;-78
2022/08/03 11:39:45;;;;;;;5.72;1.80;;;;;;;;;;5082389;28;20484;-78
2022/08/03 11:42:26;;;;;;;6.20;1.90;;;;;;;;;;5083289;28;20470;-78
2022/08/03 11:44:54;;;;;;;2.60;1.80;;;;;;;;;;5082461;28;20093;-78
2022/08/03 11:47:19;;;;;;;5.35;1.83;;;;;;;;;;5082212;28;20051;-80
2022/08/03 11:49:49;;;;;;;2.42;1.92;;;;;;;;;;5083240;28;20032;-81
2022/08/03 11:52:18;;;;;;;2.50;1.75;;;;;;;;;;5083063;28;20024;-79
2022/08/03 11:54:44;;;;;;;4.45;1.90;;;;;;;;;;5082929;28;20035;-80
2022/08/03 11:57:10;;;;;;;5.93;1.90;;;;;;;;;;5082950;28;20505;-80
2022/08/03 11:59:36;;;;;;;1.90;1.60;;;;;;;;;;5082244;28;20032;-79
2022/08/03 12:02:10;;;;;;;4.40;1.90;;;;;;;;;;5081876;28;20024;-79
2022/08/03 12:05:01;;;;;;;5.20;1.80;;;;;;;;;;5082239;28;20031;-78
2022/08/03 12:07:28;;;;;;;4.78;1.98;;;;;;;;;;5064018;28;20048;-78
2022/08/03 12:10:11;;;;;;;5.90;1.95;;;;;;;;;;5080790;28;20497;-80
2022/08/03 12:12:37;;;;;;;5.07;2.17;;;;;;;;;;5082218;28;20477;-80
2022/08/03 12:15:04;;;;;;;7.18;2.00;;;;;;;;;;5082058;28;20555;-78
2022/08/03 12:17:34;;;;;;;9.60;1.80;;;;;;;;;;5064380;28;20075;-79
2022/08/03 12:20:00;;;;;;;7.85;1.70;;;;;;;;;;5082500;28;20351;-79
2022/08/03 12:22:36;;;;;;;4.35;1.67;;;;;;;;;;5081908;28;20439;-77
2022/08/03 12:25:07;;;;;;;5.25;1.70;;;;;;;;;;5082310;28;20186;-80
2022/08/03 12:27:33;;;;;;;5.65;1.90;;;;;;;;;;5081961;28;20036;-78
2022/08/03 12:30:00;;;;;;;3.80;1.73;;;;;;;;;;5064306;28;20020;-77
2022/08/03 12:32:26;;;;;;;3.97;1.92;;;;;;;;;;5081731;28;20035;-78
2022/08/03 12:34:52;;;;;;;5.10;1.90;;;;;;;;;;5063315;28;20021;-78
2022/08/03 12:37:19;;;;;;;2.70;1.70;;;;;;;;;;5081732;28;20043;-80
2022/08/03 12:39:49;;;;;;;2.80;1.80;;;;;;;;;;5080414;28;20257;-81
2022/08/03 12:42:15;;;;;;;3.05;1.60;;;;;;;;;;5082447;28;20031;-78
2022/08/03 12:44:40;;;;;;;3.08;1.73;;;;;;;;;;5082473;28;20048;-80
2022/08/03 12:47:05;;;;;;;3.63;1.70;;;;;;;;;;5065439;28;20020;-78
2022/08/03 12:49:51;;;;;;;2.03;1.70;;;;;;;;;;5080487;28;20279;-78
2022/08/03 12:52:18;;;;;;;2.80;1.95;;;;;;;;;;5080329;28;20028;-78
2022/08/03 12:54:54;;;;;;;4.47;1.77;;;;;;;;;;5079167;28;20031;-80
2022/08/03 12:57:20;;;;;;;8.27;1.85;;;;;;;;;;5078989;28;20020;-81
2022/08/03 12:59:47;;;;;;;2.43;1.87;;;;;;;;;;5079132;28;20102;-79
2022/08/03 13:02:26;;;;;;;6.70;1.70;;;;;;;;;;5079937;28;20261;-77
2022/08/03 13:04:53;;;;;;;3.92;2.10;;;;;;;;;;5079617;28;20021;-79
2022/08/03 13:07:18;;;;;;;2.50;1.65;;;;;;;;;;5079520;28;20516;-78
2022/08/03 13:09:47;;;;;;;4.22;1.70;;;;;;;;;;5080003;28;20032;-80
2022/08/03 13:12:18;;;;;;;3.63;2.00;;;;;;;;;;5078821;28;20037;-79
2022/08/03 13:14:51;;;;;;;3.45;1.90;;;;;;;;;;5079540;28;20027;-78
2022/08/03 13:17:18;;;;;;;9.15;1.70;;;;;;;;;;5079540;28;20029;-78
2022/08/03 13:19:44;;;;;;;4.35;1.70;;;;;;;;;;5078395;28;20028;-79
2022/08/03 13:22:14;;;;;;;2.67;1.70;;;;;;;;;;5078824;28;20032;-78
2022/08/03 13:24:40;;;;;;;2.60;1.67;;;;;;;;;;5078748;28;20068;-77
2022/08/03 13:27:06;;;;;;;4.05;1.92;;;;;;;;;;5078922;28;20028;-79
2022/08/03 13:29:32;;;;;;;6.00;1.50;;;;;;;;;;5078841;28;20453;-80
2022/08/03 13:31:57;;;;;;;3.47;1.45;;;;;;;;;;5060726;28;20021;-78
2022/08/03 13:34:22;;;;;;;2.00;1.50;;;;;;;;;;5079519;28;20028;-79
2022/08/03 13:36:47;;;;;;;4.97;1.57;;;;;;;;;;5079619;28;20036;-79
2022/08/03 13:39:13;;;;;;;1.40;1.30;;;;;;;;;;5078400;28;20037;-79
2022/08/03 13:41:38;;;;;;;3.70;1.50;;;;;;;;;;5078813;28;20035;-80
2022/08/03 13:44:03;;;;;;;4.33;1.50;;;;;;;;;;5079190;28;20029;-80
2022/08/03 13:46:28;;;;;;;1.50;1.30;;;;;;;;;;5078846;28;20027;-78
2022/08/03 13:48:53;;;;;;;2.97;1.60;;;;;;;;;;5079692;28;20024;-80
2022/08/03 13:51:22;;;;;;;4.03;1.80;;;;;;;;;;5079197;28;20032;-79
2022/08/03 13:53:47;;;;;;;4.15;1.38;;;;;;;;;;5079064;28;20024;-79
2022/08/03 13:56:13;;;;;;;2.45;1.60;;;;;;;;;;5080077;28;20024;-79
2022/08/03 13:58:38;;;;;;;6.83;1.60;;;;;;;;;;5079493;28;20035;-79
2022/08/03 14:01:03;;;;;;;3.73;1.47;;;;;;;;;;5060446;28;20036;-78
2022/08/03 14:03:28;;;;;;;1.50;1.40;;;;;;;;;;5079189;28;20032;-80
2022/08/03 14:05:53;;;;;;;4.23;1.70;;;;;;;;;;5078158;28;20032;-78
2022/08/03 14:08:19;;;;;;;2.67;1.50;;;;;;;;;;5078141;28;20599;-78
2022/08/03 14:10:44;;;;;;;3.10;1.70;;;;;;;;;;5078563;28;20400;-79
2022/08/03 14:13:11;;;;;;;3.05;1.60;;;;;;;;;;5061299;28;20047;-79
2022/08/03 14:15:37;;;;;;;2.42;1.70;;;;;;;;;;5078552;28;20027;-79
2022/08/03 14:18:06;;;;;;;1.90;1.45;;;;;;;;;;5079294;28;20028;-84
2022/08/03 14:20:32;;;;;;;3.90;1.70;;;;;;;;;;5079516;28;20047;-78
2022/08/03 14:22:57;;;;;;;2.77;1.60;;;;;;;;;;5078950;28;20111;-77
2022/08/03 14:25:23;;;;;;;2.53;1.30;;;;;;;;;;5077198;28;20268;-81
2022/08/03 14:27:50;;;;;;;2.17;1.53;;;;;;;;;;5057983;28;20518;-80
2022/08/03 14:30:16;;;;;;;2.80;1.40;;;;;;;;;;5076092;28;20342;-82
2022/08/03 14:32:41;;;;;;;2.42;1.50;;;;;;;;;;5076251;28;20024;-82
2022/08/03 14:35:07;;;;;;;1.73;1.38;;;;;;;;;;5076279;28;20071;-80
2022/08/03 14:37:32;;;;;;;4.82;1.55;;;;;;;;;;5076571;28;20032;-81
2022/08/03 14:39:58;;;;;;;3.97;1.75;;;;;;;;;;5058428;28;20108;-80
2022/08/03 14:42:23;;;;;;;8.38;1.60;;;;;;;;;;5076356;28;20024;-80
2022/08/03 14:44:56;;;;;;;4.13;1.60;;;;;;;;;;5075970;28;20107;-80
2022/08/03 14:47:21;;;;;;;1.73;1.55;;;;;;;;;;5077160;28;20055;-80
2022/08/03 14:49:46;;;;;;;3.20;1.50;;;;;;;;;;5077027;28;20032;-79
2022/08/03 14:52:11;;;;;;;2.10;1.43;;;;;;;;;;5057890;28;20032;-81
2022/08/03 14:54:37;;;;;;;3.80;1.47;;;;;;;;;;5075934;28;20253;-80
2022/08/03 14:57:02;;;;;;;3.63;1.60;;;;;;;;;;5075545;28;20031;-80
2022/08/03 14:59:27;;;;;;;5.07;1.50;;;;;;;;;;5078863;28;20084;-80
2022/08/03 15:01:53;;;;;;;1.53;1.43;;;;;;;;;;5085707;28;20021;-80
2022/08/03 15:04:18;;;;;;;10.50;1.70;;;;;;;;;;5084654;28;20269;-81
2022/08/03 15:06:43;;;;;;;7.90;1.60;;;;;;;;;;5090150;28;20055;-79
2022/08/03 15:09:08;;;;;;;1.50;1.40;;;;;;;;;;5086861;28;20027;-79
2022/08/03 15:11:34;;;;;;;4.00;1.57;;;;;;;;;;5069703;28;20051;-79
2022/08/03 15:14:00;;;;;;;1.80;1.42;;;;;;;;;;5088854;28;20020;-79
2022/08/03 15:16:25;;;;;;;5.03;1.50;;;;;;;;;;5088666;28;20020;-80
2022/08/03 15:18:50;;;;;;;5.63;1.50;;;;;;;;;;5087533;28;20033;-79
2022/08/03 15:21:15;;;;;;;5.17;1.53;;;;;;;;;;5083488;28;20024;-79
2022/08/03 15:23:41;;;;;;;10.52;1.80;;;;;;;;;;5065373;28;20028;-78
2022/08/03 15:26:06;;;;;;;2.13;1.50;;;;;;;;;;5079997;28;20090;-78
2022/08/03 15:28:31;;;;;;;2.03;1.60;;;;;;;;;;5078408;28;20292;-78
2022/08/03 15:30:57;;;;;;;3.30;1.65;;;;;;;;;;5077896;28;20036;-77
2022/08/03 15:33:22;;;;;;;6.00;1.60;;;;;;;;;;5078560;28;20024;-77
2022/08/03 15:35:48;;;;;;;6.47;1.40;;;;;;;;;;5078422;28;20261;-77
2022/08/03 15:38:14;;;;;;;3.60;1.67;;;;;;;;;;5077889;28;20293;-77
2022/08/03 15:40:39;;;;;;;3.90;1.73;;;;;;;;;;5078579;28;20020;-77
2022/08/03 15:43:04;;;;;;;5.18;1.67;;;;;;;;;;5080002;28;20035;-77
2022/08/03 15:45:29;;;;;;;3.50;1.50;;;;;;;;;;5080939;28;20028;-77
2022/08/03 15:47:55;;;;;;;4.37;1.60;;;;;;;;;;5081892;28;20020;-77
2022/08/03 15:50:20;;;;;;;5.77;1.70;;;;;;;;;;5081204;28;20035;-77
2022/08/03 15:52:45;;;;;;;4.23;1.50;;;;;;;;;;5082668;28;20289;-78
2022/08/03 15:55:10;;;;;;;2.63;1.53;;;;;;;;;;5082395;28;20033;-78
2022/08/03 15:57:36;;;;;;;8.63;1.77;;;;;;;;;;5080787;28;20264;-76
2022/08/03 16:00:07;;;;;;;2.90;1.55;;;;;;;;;;5063182;28;20343;-75
2022/08/03 16:02:32;;;;;;;5.78;1.67;;;;;;;;;;5080452;28;20025;-76
2022/08/03 16:04:57;;;;;;;3.60;1.65;;;;;;;;;;5081360;28;20432;-77
2022/08/03 16:10:08;;;;;;;;;;;;;;;;;;5080928;28;20078;-78
2022/08/03 16:12:34;;;;;;;5.57;1.73;;;;;;;;;;5080738;28;19912;-76
2022/08/03 16:15:01;;;;;;;3.42;1.75;;;;;;;;;;5081157;28;20034;-83
2022/08/03 16:17:26;;;;;;;4.97;1.73;;;;;;;;;;5084406;28;20028;-80
2022/08/03 16:19:51;;;;;;;4.20;1.60;;;;;;;;;;5080958;28;20027;-77
2022/08/03 16:22:16;;;;;;;2.87;1.70;;;;;;;;;;5079619;28;20390;-77
2022/08/03 16:24:42;;;;;;;5.60;1.53;;;;;;;;;;5079637;28;20389;-78
2022/08/03 16:27:07;;;;;;;8.15;1.80;;;;;;;;;;5078856;28;20515;-78
2022/08/03 16:29:32;;;;;;;1.90;1.60;;;;;;;;;;5079056;28;20557;-78
2022/08/03 16:32:05;;;;;;;4.13;1.60;;;;;;;;;;5078757;28;20082;-77
2022/08/03 16:34:31;;;;;;;1.92;1.70;;;;;;;;;;5061197;28;20504;-79
2022/08/03 16:36:56;;;;;;;4.07;1.58;;;;;;;;;;5079276;28;20056;-79
2022/08/03 16:39:22;;;;;;;3.27;1.60;;;;;;;;;;5078958;28;20031;-78
2022/08/03 16:41:47;;;;;;;3.23;1.50;;;;;;;;;;5079539;28;20024;-77
2022/08/03 16:44:12;;;;;;;2.50;1.63;;;;;;;;;;5079927;28;20054;-77
2022/08/03 16:46:41;;;;;;;4.70;1.50;;;;;;;;;;5079104;28;20020;-77
2022/08/03 16:49:06;;;;;;;2.05;1.60;;;;;;;;;;5079908;28;20080;-78
2022/08/03 16:51:31;;;;;;;2.80;1.73;;;;;;;;;;5078860;28;20438;-78
2022/08/03 16:53:57;;;;;;;2.90;1.60;;;;;;;;;;5077719;28;20025;-79
2022/08/03 16:56:22;;;;;;;3.00;1.30;;;;;;;;;;5078693;28;20264;-78
2022/08/03 16:58:47;;;;;;;4.13;1.70;;;;;;;;;;5078687;28;20028;-78
2022/08/03 17:01:13;;;;;;;4.93;1.60;;;;;;;;;;5078097;28;20281;-78
2022/08/03 17:03:42;;;;;;;8.70;1.80;;;;;;;;;;5078145;28;20063;-79
2022/08/03 17:06:07;;;;;;;4.10;1.70;;;;;;;;;;5077932;28;20021;-80
2022/08/03 17:08:33;;;;;;;1.95;1.60;;;;;;;;;;5083416;28;20036;-79
2022/08/03 17:10:58;;;;;;;4.28;1.60;;;;;;;;;;5082703;28;20027;-79
2022/08/03 17:13:24;;;;;;;4.10;1.60;;;;;;;;;;5080958;28;20028;-80
2022/08/03 17:15:50;;;;;;;3.85;1.55;;;;;;;;;;5063751;28;20027;-83
2022/08/03 17:18:24;;;;;;;4.82;1.98;;;;;;;;;;5044547;28;20043;-82
2022/08/03 17:20:51;;;;;;;3.08;1.80;;;;;;;;;;5079192;28;20029;-84
2022/08/03 17:23:44;;;;;;;1.70;1.60;;;;;;;;;;5078547;28;20051;-82
2022/08/03 17:26:12;;;;;;;2.40;1.83;;;;;;;;;;5078942;28;20124;-80
2022/08/03 17:28:41;;;;;;;3.72;1.55;;;;;;;;;;5078371;28;20051;-83
2022/08/03 17:31:14;;;;;;;3.22;1.58;;;;;;;;;;5083716;28;20091;-82
2022/08/03 17:33:40;;;;;;;2.85;1.70;;;;;;;;;;5075529;28;20021;-82
2022/08/03 17:36:06;;;;;;;7.70;1.80;;;;;;;;;;5078916;28;20032;-82
2022/08/03 17:38:33;;;;;;;3.05;1.60;;;;;;;;;;5093349;28;20037;-81
2022/08/03 17:41:01;;;;;;;4.90;1.80;;;;;;;;;;5068735;28;20024;-81
2022/08/03 17:43:27;;;;;;;2.58;1.60;;;;;;;;;;5084352;28;20021;-81
2022/08/03 17:45:52;;;;;;;8.63;4.72;;;;;;;;;;5086388;28;20063;-80
2022/08/03 17:48:17;;;;;;;5.47;1.97;;;;;;;;;;5084057;28;20031;-80
2022/08/03 17:50:51;;;;;;;6.45;2.65;;;;;;;;;;5092913;28;20030;-82
2022/08/03 17:53:19;;;;;;;;;;;;;;;;;;5095852;28;20059;-80
2022/08/03 17:55:50;;;;;;;4.80;1.90;;;;;;;;;;5096089;28;20393;-81
2022/08/03 17:58:27;;;;;;;2.63;1.85;;;;;;;;;;5092767;28;20077;-82
2022/08/03 18:03:48;;;;;;;5.47;1.88;;;;;;;;;;5067285;28;20079;-81
2022/08/03 18:06:14;;;;;;;4.22;1.98;;;;;;;;;;5080604;28;20386;-80
2022/08/03 18:08:49;;;;;;;8.07;1.60;;;;;;;;;;5079622;28;20033;-80
2022/08/03 18:11:20;;;;;;;3.67;1.83;;;;;;;;;;5061650;28;20123;-81
2022/08/03 18:14:11;;;;;;;4.97;1.80;;;;;;;;;;5079312;28;20020;-80
2022/08/03 18:16:41;;;;;;;3.72;1.90;;;;;;;;;;5069367;28;20041;-81
2022/08/03 18:19:07;;;;;;;3.35;2.00;;;;;;;;;;5080441;28;20032;-82
2022/08/03 18:21:34;;;;;;;5.32;2.17;;;;;;;;;;5062112;28;20036;-83
2022/08/03 18:24:01;;;;;;;21.92;2.42;;;;;;;;;;5063579;28;20039;-83
2022/08/03 18:26:27;;;;;;;7.85;2.67;;;;;;;;;;5081316;28;20050;-82
2022/08/03 18:28:53;;;;;;;6.68;2.20;;;;;;;;;;5079815;28;20493;-82
2022/08/03 18:31:20;;;;;;;10.45;2.10;;;;;;;;;;5080664;28;20470;-81
2022/08/03 18:33:45;;;;;;;4.03;2.10;;;;;;;;;;5079802;28;20025;-78
2022/08/03 18:36:12;;;;;;;2.35;1.95;;;;;;;;;;5080989;28;20020;-78
2022/08/03 18:38:41;;;;;;;7.90;2.25;;;;;;;;;;5060878;28;20024;-78
2022/08/03 18:41:07;;;;;;;5.68;2.00;;;;;;;;;;5078290;28;20096;-77
2022/08/03 18:43:33;;;;;;;6.07;2.20;;;;;;;;;;5077696;28;20561;-77
2022/08/03 18:46:02;;;;;;;4.32;2.35;;;;;;;;;;5077467;28;20032;-80
2022/08/03 18:48:39;;;;;;;6.68;2.25;;;;;;;;;;5076102;28;20025;-79
2022/08/03 18:51:12;;;;;;;6.10;2.30;;;;;;;;;;5076835;28;20027;-78
2022/08/03 18:54:05;;;;;;;3.10;2.05;;;;;;;;;;5058413;28;20028;-79
2022/08/03 18:56:47;;;;;;;6.93;2.37;;;;;;;;;;5061015;28;20481;-79
2022/08/03 18:59:37;;;;;;;5.55;2.30;;;;;;;;;;5061022;28;20494;-78
2022/08/03 19:02:06;;;;;;;6.15;2.33;;;;;;;;;;5080909;28;20043;-78
2022/08/03 19:04:46;;;;;;;6.18;2.10;;;;;;;;;;5079922;28;20029;-78
2022/08/03 19:07:16;;;;;;;3.40;2.50;;;;;;;;;;5062489;28;20405;-78
2022/08/03 19:09:48;;;;;;;13.60;2.58;;;;;;;;;;5080667;28;20025;-81
2022/08/03 19:12:16;;;;;;;5.82;2.25;;;;;;;;;;5080021;28;20024;-78
2022/08/03 19:14:46;;;;;;;2.40;2.20;;;;;;;;;;5080787;28;20108;-78
2022/08/03 19:17:12;;;;;;;2.53;2.30;;;;;;;;;;5080253;28;20016;-78
2022/08/03 19:19:42;;;;;;;5.40;2.20;;;;;;;;;;5066356;28;20025;-79
2022/08/03 19:22:09;;;;;;;3.90;2.22;;;;;;;;;;5083096;28;20056;-78
2022/08/03 19:24:37;;;;;;;4.40;2.28;;;;;;;;;;5083833;28;20031;-77
2022/08/03 19:27:03;;;;;;;6.15;2.20;;;;;;;;;;5083464;28;20032;-78
2022/08/03 19:29:29;;;;;;;4.97;2.38;;;;;;;;;;5064712;28;20032;-79
2022/08/03 19:31:56;;;;;;;3.30;2.47;;;;;;;;;;5082969;28;20025;-78
2022/08/03 19:34:22;;;;;;;8.27;2.50;;;;;;;;;;5083374;28;20039;-78
2022/08/03 19:36:48;;;;;;;3.88;2.20;;;;;;;;;;5083348;28;20028;-77
2022/08/03 19:39:13;;;;;;;4.68;2.20;;;;;;;;;;5083340;28;20044;-79
2022/08/03 19:41:40;;;;;;;4.27;2.20;;;;;;;;;;5083816;28;20021;-79
2022/08/03 19:44:13;;;;;;;4.95;2.50;;;;;;;;;;5082761;28;20024;-79
2022/08/03 19:47:00;;;;;;;2.73;2.20;;;;;;;;;;5064807;28;20024;-79
2022/08/03 19:49:31;;;;;;;5.82;2.38;;;;;;;;;;5083294;28;20195;-78
2022/08/03 19:52:00;;;;;;;6.15;2.60;;;;;;;;;;5082394;28;20025;-78
2022/08/03 19:54:28;;;;;;;4.35;2.50;;;;;;;;;;5083093;28;20051;-78
2022/08/03 19:56:54;;;;;;;6.18;2.65;;;;;;;;;;5082753;28;20107;-78
2022/08/03 19:59:22;;;;;;;6.55;2.53;;;;;;;;;;5065074;28;20460;-77
2022/08/03 20:01:47;;;;;;;5.63;2.80;;;;;;;;;;5082248;28;20027;-78
2022/08/03 20:04:13;;;;;;;7.78;2.72;;;;;;;;;;5082915;28;20115;-79
2022/08/03 20:06:39;;;;;;;8.80;3.35;;;;;;;;;;5083203;28;20505;-78
2022/08/03 20:09:05;;;;;;;7.80;4.20;;;;;;;;;;5083323;28;20442;-78
2022/08/03 20:11:31;;;;;;;6.28;4.50;;;;;;;;;;5083159;28;20066;-78
2022/08/03 20:13:57;;;;;;;8.77;4.75;;;;;;;;;;5082980;28;20025;-79